Aeroporto :
LOGIN :

Iscrizione | Disclaimer

   EN    FR    IT 

 










Sommario :    VFR   VFR Marginale   IFR   IFR Intensivo   IFR Molto Intensivo
Visibilità : 
Base nubi : 
>= 8 km
>= 3000ft
5 / 8 km
1000 / 3000 ft
1500m / 5 km
500 / 1000 ft
800 / 1500m
200 / 500 ft
< 800m
< 200 ft
Simboli :   Temporali  Nebbia  Neve Forte  Precipitazioni Forti  Vento > 20 kt
SIGMETs :   Varie  Temporali  Ghiacco  Turbolenza  Onda orograficha  Ceneri Vulcaniche






- Altitudine del aeroporto : 870 ft
- Codice IATA : ETZ


LFJL - Metz Nancy Lorraine

ULTIMO METAR :
  • 082100Z AUTO 23016KT 9999 FEW019 07/05 Q1006 TEMPO 29020G35KT 4500 SHRA BKN014 FEW018TCU

METARs OBSOLETI :
  • 082030Z AUTO 24015KT 9999 SCT017 08/06 Q1007 TEMPO 29020G35KT 4500 SHRA BKN014 FEW018TCU
  • 082000Z AUTO 24014KT 9999 OVC018 08/06 Q1007 BECMG 24015G25KT
  • 081930Z AUTO 22011KT 9999 BKN024 BKN062 OVC072 08/07 Q1006 BECMG 24015G25KT
  • 081900Z AUTO 22014KT 9999 FEW047 OVC054 08/07 Q1006 TEMPO 3500 RA OVC005 BECMG 24015G25KT
  • 081830Z AUTO 22015KT 9999 OVC040 08/07 Q1006 TEMPO 3500 RA OVC005 BECMG 24015G25KT

TAF AMD TAF LFJL
Valido dal 08 a 18 ore il 09 a 18 ore UTC


081754Z 0818/0918 24015G25KT 9999 FEW015 BKN025
TEMPO 0818/0820 3500 RA OVC005
TEMPO 0822/0901 29020G35KT 4500 SHRA BKN014 FEW018TCU
BECMG 0903/0906 -SHRA
TEMPO 0906/0914 4000 SHRA BKN014
BECMG 0914/0916 30015G25KT
PROB40
TEMPO 0914/0918 4000 SHRA BKN014 FEW020TCU



MetMap, La meteo Aeronautica in un colpo d'occhio ! - Copyright ORBIFLY Dicembre 2007 - Disclaimer

ORBIFLY MET'MAP TEAM :

Programmazione e sviluppo : Alexandra Zaïnal
Concezione : Baudouin d'Aumeries
Aiuto per la programmazione : Marc-Olivier Méhu
Supporto tecnico e logistico : Manuel Goepfert
Aiuto per la traduzione : Arnaldo La Scala

Contatto : metmap@orbifly.com




FONTI E CREDITI :

   NOAA